Time;durP1;ratioP1;P1;durP2;ratioP2;P2;SDS_P1;SDS_P2;PMS_P1;PMS_P2;Temp;Humidity;BMP_temperature;BMP_pressure;BME280_temperature;BME280_humidity;BME280_pressure;Samples;Min_cycle;Max_cycle;Signal;HPM_P1;HPM_P2
2023/05/29 00:00:13;;;;;;;;;;;;;;;;;;2195987;67;1820;-22
2023/05/29 00:02:44;;;;;;;;;;;;;;;;;;2195867;66;1928;-23
2023/05/29 00:05:14;;;;;;;;;;;;;;;;;;2195218;67;1592;-23
2023/05/29 00:07:44;;;;;;;;;;;;;;;;;;2195719;67;1322;-22
2023/05/29 00:10:15;;;;;;;;;;;;;;;;;;2195375;66;1581;-22
2023/05/29 00:12:45;;;;;;;;;;;;;;;;;;2195503;67;1337;-22
2023/05/29 00:15:15;;;;;;;;;;;;;;;;;;2194608;67;1733;-22
2023/05/29 00:17:46;;;;;;;;;;;;;;;;;;2192434;59;2057;-23
2023/05/29 00:20:16;;;;;;;;;;;;;;;;;;2194312;67;1220;-22
2023/05/29 00:22:48;;;;;;;;;;;;;;;;;;2195607;67;2014;-22
2023/05/29 00:25:18;;;;;;;;;;;;;;;;;;2196686;66;1521;-22
2023/05/29 00:27:48;;;;;;;;;;;;;;;;;;2195528;59;1492;-23
2023/05/29 00:30:18;;;;;;;;;;;;;;;;;;2195354;67;1609;-23
2023/05/29 00:32:49;;;;;;;;;;;;;;;;;;2194936;66;1496;-23
2023/05/29 00:35:20;;;;;;;;;;;;;;;;;;2196333;59;1691;-22
2023/05/29 00:37:50;;;;;;;;;;;;;;;;;;2212065;59;1448;-22
2023/05/29 00:40:20;;;;;;;;;;;;;;;;;;2196484;66;1228;-22
2023/05/29 00:42:50;;;;;;;;;;;;;;;;;;2196537;59;1949;-22
2023/05/29 00:45:21;;;;;;;;;;;;;;;;;;2196743;66;1318;-22
2023/05/29 00:47:51;;;;;;;;;;;;;;;;;;2196439;59;2166;-22
2023/05/29 00:50:21;;;;;;;;;;;;;;;;;;2196174;59;1770;-22
2023/05/29 00:52:51;;;;;;;;;;;;;;;;;;2195788;59;1319;-22
2023/05/29 00:55:22;;;;;;;;;;;;;;;;;;2195730;59;1726;-22
2023/05/29 00:57:52;;;;;;;;;;;;;;;;;;2196777;59;2275;-22
2023/05/29 01:00:23;;;;;;;;;;;;;;;;;;2196664;59;2233;-22
2023/05/29 01:02:53;;;;;;;;;;;;;;;;;;2196434;66;1957;-22
2023/05/29 01:05:24;;;;;;;;;;;;;;;;;;2197059;59;1570;-22
2023/05/29 01:07:54;;;;;;;;;;;;;;;;;;2196614;66;1338;-22
2023/05/29 01:10:28;;;;;;;;;;;;;;;;;;2196254;66;1475;-22
2023/05/29 01:13:01;;;;;;;;;;;;;;;;;;2197169;67;1629;-22
2023/05/29 01:15:41;;;;;;;;;;;;;;;;;;2196495;59;1552;-22
2023/05/29 01:18:34;;;;;;;;;;;;;;;;;;2195937;59;2004;-22
2023/05/29 01:21:23;;;;;;;;;;;;;;;;;;2196450;66;1312;-22
2023/05/29 01:24:02;;;;;;;;;;;;;;;;;;2196555;66;1940;-22
2023/05/29 01:26:48;;;;;;;;;;;;;;;;;;2196406;59;1675;-22
2023/05/29 01:29:22;;;;;;;;;;;;;;;;;;2196501;66;1514;-22
2023/05/29 01:31:54;;;;;;;;;;;;;;;;;;2196437;67;1629;-22
2023/05/29 01:34:24;;;;;;;;;;;;;;;;;;2196357;67;1303;-22
2023/05/29 01:36:54;;;;;;;;;;;;;;;;;;2196532;66;1310;-22
2023/05/29 01:39:25;;;;;;;;;;;;;;;;;;2195725;59;1589;-22
2023/05/29 01:41:56;;;;;;;;;;;;;;;;;;2196347;59;1944;-22
2023/05/29 01:44:27;;;;;;;;;;;;;;;;;;2196048;66;1403;-22
2023/05/29 01:46:57;;;;;;;;;;;;;;;;;;2196992;67;2252;-22
2023/05/29 01:49:29;;;;;;;;;;;;;;;;;;2196434;59;1560;-22
2023/05/29 01:51:59;;;;;;;;;;;;;;;;;;2197078;67;1343;-22
2023/05/29 01:54:29;;;;;;;;;;;;;;;;;;2196154;59;1330;-22
2023/05/29 01:57:02;;;;;;;;;;;;;;;;;;2196352;66;1221;-22
2023/05/29 01:59:33;;;;;;;;;;;;;;;;;;2195954;67;2307;-22
2023/05/29 02:02:10;;;;;;;;;;;;;;;;;;2195700;59;1997;-22
2023/05/29 02:04:40;;;;;;;;;;;;;;;;;;2196818;67;1106;-22
2023/05/29 02:07:12;;;;;;;;;;;;;;;;;;2196054;66;1481;-22
2023/05/29 02:09:42;;;;;;;;;;;;;;;;;;2196399;59;1328;-22
2023/05/29 02:12:12;;;;;;;;;;;;;;;;;;2196089;66;1556;-22
2023/05/29 02:14:42;;;;;;;;;;;;;;;;;;2196318;67;2286;-22
2023/05/29 02:17:14;;;;;;;;;;;;;;;;;;2196929;67;1544;-22
2023/05/29 02:19:45;;;;;;;;;;;;;;;;;;2196634;66;1139;-22
2023/05/29 02:22:17;;;;;;;;;;;;;;;;;;2195958;67;1984;-22
2023/05/29 02:24:47;;;;;;;;;;;;;;;;;;2195695;66;1285;-22
2023/05/29 02:27:17;;;;;;;;;;;;;;;;;;2196657;59;1221;-22
2023/05/29 02:29:47;;;;;;;;;;;;;;;;;;2195912;66;1200;-22
2023/05/29 02:32:17;;;;;;;;;;;;;;;;;;2195710;67;1200;-22
2023/05/29 02:34:48;;;;;;;;;;;;;;;;;;2196243;67;1399;-22
2023/05/29 02:37:18;;;;;;;;;;;;;;;;;;2193227;59;1785;-22
2023/05/29 02:39:48;;;;;;;;;;;;;;;;;;2197641;59;1203;-22
2023/05/29 02:42:18;;;;;;;;;;;;;;;;;;2195180;66;2004;-22
2023/05/29 02:44:49;;;;;;;;;;;;;;;;;;2196883;67;1570;-22
2023/05/29 02:47:20;;;;;;;;;;;;;;;;;;2196360;59;2220;-22
2023/05/29 02:49:51;;;;;;;;;;;;;;;;;;2193420;59;2153;-22
2023/05/29 02:52:22;;;;;;;;;;;;;;;;;;2195074;59;1314;-22
2023/05/29 02:54:54;;;;;;;;;;;;;;;;;;2195463;59;2184;-22
2023/05/29 02:57:24;;;;;;;;;;;;;;;;;;2195821;66;1089;-22
2023/05/29 02:59:55;;;;;;;;;;;;;;;;;;2196563;67;1253;-22
2023/05/29 03:02:25;;;;;;;;;;;;;;;;;;2196020;59;1991;-22
2023/05/29 03:04:55;;;;;;;;;;;;;;;;;;2196222;59;1834;-22
2023/05/29 03:07:25;;;;;;;;;;;;;;;;;;2195842;66;1672;-22
2023/05/29 03:09:56;;;;;;;;;;;;;;;;;;2196411;67;1154;-22
2023/05/29 03:12:29;;;;;;;;;;;;;;;;;;2195640;67;2495;-22
2023/05/29 03:15:00;;;;;;;;;;;;;;;;;;2197116;67;1216;-22
2023/05/29 03:17:30;;;;;;;;;;;;;;;;;;2195845;67;1270;-22
2023/05/29 03:20:00;;;;;;;;;;;;;;;;;;2195106;67;2188;-22
2023/05/29 03:22:31;;;;;;;;;;;;;;;;;;2195788;67;1923;-22
2023/05/29 03:25:02;;;;;;;;;;;;;;;;;;2196828;67;1325;-22
2023/05/29 03:27:35;;;;;;;;;;;;;;;;;;2198356;66;1608;-22
2023/05/29 03:30:06;;;;;;;;;;;;;;;;;;2196272;67;1407;-22
2023/05/29 03:32:36;;;;;;;;;;;;;;;;;;2196315;66;1366;-22
2023/05/29 03:35:06;;;;;;;;;;;;;;;;;;2196152;59;2262;-22
2023/05/29 03:37:36;;;;;;;;;;;;;;;;;;2196060;59;1663;-22
2023/05/29 03:40:07;;;;;;;;;;;;;;;;;;2195734;67;1290;-21
2023/05/29 03:42:37;;;;;;;;;;;;;;;;;;2195598;59;1937;-22
2023/05/29 03:45:08;;;;;;;;;;;;;;;;;;2195626;66;1454;-22
2023/05/29 03:47:41;;;;;;;;;;;;;;;;;;2196247;59;2107;-22
2023/05/29 03:50:14;;;;;;;;;;;;;;;;;;2195548;59;2009;-22
2023/05/29 03:52:45;;;;;;;;;;;;;;;;;;2196073;66;1391;-22
2023/05/29 03:55:15;;;;;;;;;;;;;;;;;;2195129;59;1262;-22
2023/05/29 03:57:45;;;;;;;;;;;;;;;;;;2196470;59;2172;-22
2023/05/29 04:00:16;;;;;;;;;;;;;;;;;;2196152;59;1199;-22
2023/05/29 04:02:46;;;;;;;;;;;;;;;;;;2196978;67;1929;-22
2023/05/29 04:05:17;;;;;;;;;;;;;;;;;;2195589;59;2119;-22
2023/05/29 04:07:47;;;;;;;;;;;;;;;;;;2195911;67;1180;-22
2023/05/29 04:10:17;;;;;;;;;;;;;;;;;;2195721;67;1780;-22
2023/05/29 04:12:47;;;;;;;;;;;;;;;;;;2195918;66;1512;-22
2023/05/29 04:15:18;;;;;;;;;;;;;;;;;;2195252;67;1340;-22
2023/05/29 04:17:48;;;;;;;;;;;;;;;;;;2196213;67;1262;-22
2023/05/29 04:20:18;;;;;;;;;;;;;;;;;;2195360;60;2200;-22
2023/05/29 04:22:48;;;;;;;;;;;;;;;;;;2196337;59;2009;-22
2023/05/29 04:25:18;;;;;;;;;;;;;;;;;;2196520;59;1394;-22
2023/05/29 04:27:49;;;;;;;;;;;;;;;;;;2196594;59;1187;-22
2023/05/29 04:30:19;;;;;;;;;;;;;;;;;;2196367;59;1862;-22
2023/05/29 04:32:49;;;;;;;;;;;;;;;;;;2197932;67;1235;-22
2023/05/29 04:35:19;;;;;;;;;;;;;;;;;;2201481;59;2035;-22
2023/05/29 04:37:50;;;;;;;;;;;;;;;;;;2195719;59;1439;-22
2023/05/29 04:40:20;;;;;;;;;;;;;;;;;;2194802;67;1761;-22
2023/05/29 04:42:50;;;;;;;;;;;;;;;;;;2195844;59;1935;-22
2023/05/29 04:45:21;;;;;;;;;;;;;;;;;;2195886;67;1598;-22
2023/05/29 04:47:53;;;;;;;;;;;;;;;;;;2196089;67;2260;-22
2023/05/29 04:50:23;;;;;;;;;;;;;;;;;;2195903;59;1578;-21
2023/05/29 04:52:54;;;;;;;;;;;;;;;;;;2196391;59;1312;-22
2023/05/29 04:55:24;;;;;;;;;;;;;;;;;;2195494;59;1530;-22
2023/05/29 04:57:58;;;;;;;;;;;;;;;;;;2195905;67;2361;-24
2023/05/29 05:00:28;;;;;;;;;;;;;;;;;;2196164;59;2040;-24
2023/05/29 05:02:58;;;;;;;;;;;;;;;;;;2195406;67;2011;-24
2023/05/29 05:05:50;;;;;;;;;;;;;;;;;;2196435;66;1280;-24
2023/05/29 05:08:20;;;;;;;;;;;;;;;;;;2196530;66;1692;-25
2023/05/29 05:10:50;;;;;;;;;;;;;;;;;;2196769;67;1636;-24
2023/05/29 05:13:20;;;;;;;;;;;;;;;;;;2196280;67;1606;-24
2023/05/29 05:15:51;;;;;;;;;;;;;;;;;;2196586;67;1553;-22
2023/05/29 05:18:21;;;;;;;;;;;;;;;;;;2197221;66;2044;-22
2023/05/29 05:20:51;;;;;;;;;;;;;;;;;;2197149;67;1165;-22
2023/05/29 05:23:22;;;;;;;;;;;;;;;;;;2196147;66;2039;-24
2023/05/29 05:25:52;;;;;;;;;;;;;;;;;;2196313;59;1660;-22
2023/05/29 05:28:22;;;;;;;;;;;;;;;;;;2199720;66;1626;-22
2023/05/29 05:30:52;;;;;;;;;;;;;;;;;;2196854;67;1353;-23
2023/05/29 05:33:22;;;;;;;;;;;;;;;;;;2196803;66;2079;-22
2023/05/29 05:35:53;;;;;;;;;;;;;;;;;;2201165;66;1761;-22
2023/05/29 05:38:23;;;;;;;;;;;;;;;;;;2197229;59;1632;-22
2023/05/29 05:40:53;;;;;;;;;;;;;;;;;;2196485;59;1411;-23
2023/05/29 05:43:24;;;;;;;;;;;;;;;;;;2196481;66;2012;-22
2023/05/29 05:45:54;;;;;;;;;;;;;;;;;;2196231;66;1976;-22
2023/05/29 05:48:25;;;;;;;;;;;;;;;;;;2196405;66;2252;-22
2023/05/29 05:50:55;;;;;;;;;;;;;;;;;;2196242;59;1559;-22
2023/05/29 05:53:25;;;;;;;;;;;;;;;;;;2195937;66;1358;-22
2023/05/29 05:55:55;;;;;;;;;;;;;;;;;;2196578;59;1716;-22
2023/05/29 05:58:25;;;;;;;;;;;;;;;;;;2197097;59;2247;-22
2023/05/29 06:00:57;;;;;;;;;;;;;;;;;;2197173;59;1334;-22
2023/05/29 06:03:27;;;;;;;;;;;;;;;;;;2195765;67;1943;-22
2023/05/29 06:05:57;;;;;;;;;;;;;;;;;;2207532;53;2021;-21
2023/05/29 06:08:27;;;;;;;;;;;;;;;;;;2210944;66;2774;-21
2023/05/29 06:10:58;;;;;;;;;;;;;;;;;;2212581;66;1840;-21
2023/05/29 06:13:28;;;;;;;;;;;;;;;;;;2208754;66;1825;-21
2023/05/29 06:15:58;;;;;;;;;;;;;;;;;;2212326;59;2830;-21
2023/05/29 06:18:28;;;;;;;;;;;;;;;;;;2212158;66;2496;-21
2023/05/29 06:20:58;;;;;;;;;;;;;;;;;;2212465;66;3020;-21
2023/05/29 06:23:29;;;;;;;;;;;;;;;;;;2212758;67;2353;-21
2023/05/29 06:25:59;;;;;;;;;;;;;;;;;;2212007;66;1576;-21
2023/05/29 06:28:30;;;;;;;;;;;;;;;;;;2211959;66;2491;-21
2023/05/29 06:31:00;;;;;;;;;;;;;;;;;;2212649;66;2311;-21
2023/05/29 06:33:30;;;;;;;;;;;;;;;;;;2212005;66;3012;-21
2023/05/29 06:36:01;;;;;;;;;;;;;;;;;;2212391;59;3125;-21
2023/05/29 06:38:31;;;;;;;;;;;;;;;;;;2212243;59;1755;-21
2023/05/29 06:41:01;;;;;;;;;;;;;;;;;;2212490;59;2432;-21
2023/05/29 06:43:32;;;;;;;;;;;;;;;;;;2211605;67;1938;-21
2023/05/29 06:46:02;;;;;;;;;;;;;;;;;;2212468;66;1236;-21
2023/05/29 06:48:33;;;;;;;;;;;;;;;;;;2211808;66;1905;-21
2023/05/29 06:51:11;;;;;;;;;;;;;;;;;;2211846;59;1393;-21
2023/05/29 06:53:42;;;;;;;;;;;;;;;;;;2212655;66;1256;-21
2023/05/29 06:56:12;;;;;;;;;;;;;;;;;;2212062;66;1789;-21
2023/05/29 06:58:45;;;;;;;;;;;;;;;;;;2211932;66;2245;-21
2023/05/29 07:01:16;;;;;;;;;;;;;;;;;;2212156;59;1434;-21
2023/05/29 07:03:51;;;;;;;;;;;;;;;;;;2208765;67;1939;-21
2023/05/29 07:06:24;;;;;;;;;;;;;;;;;;2212550;59;1527;-21
2023/05/29 07:08:55;;;;;;;;;;;;;;;;;;2211851;66;1631;-21
2023/05/29 07:11:26;;;;;;;;;;;;;;;;;;2212693;66;1617;-21
2023/05/29 07:13:56;;;;;;;;;;;;;;;;;;2212384;66;1223;-21
2023/05/29 07:16:26;;;;;;;;;;;;;;;;;;2211893;67;1285;-21
2023/05/29 07:18:56;;;;;;;;;;;;;;;;;;2208097;67;1712;-21
2023/05/29 07:21:27;;;;;;;;;;;;;;;;;;2208588;59;2258;-21
2023/05/29 07:24:00;;;;;;;;;;;;;;;;;;2210844;66;1935;-22
2023/05/29 07:26:30;;;;;;;;;;;;;;;;;;2211559;66;1693;-21
2023/05/29 07:29:00;;;;;;;;;;;;;;;;;;2208888;66;1535;-21
2023/05/29 07:31:31;;;;;;;;;;;;;;;;;;2211177;66;1521;-22
2023/05/29 07:34:01;;;;;;;;;;;;;;;;;;2211536;66;1717;-22
2023/05/29 07:36:32;;;;;;;;;;;;;;;;;;2211850;59;1398;-22
2023/05/29 07:39:02;;;;;;;;;;;;;;;;;;2212175;59;1346;-22
2023/05/29 07:41:32;;;;;;;;;;;;;;;;;;2212144;59;1351;-22
2023/05/29 07:44:02;;;;;;;;;;;;;;;;;;2211881;67;1983;-22
2023/05/29 07:46:32;;;;;;;;;;;;;;;;;;2211873;59;2040;-22
2023/05/29 07:49:03;;;;;;;;;;;;;;;;;;2211801;67;1237;-22
2023/05/29 07:51:33;;;;;;;;;;;;;;;;;;2212027;59;1277;-22
2023/05/29 07:54:03;;;;;;;;;;;;;;;;;;2209710;59;1855;-22
2023/05/29 07:56:33;;;;;;;;;;;;;;;;;;2208856;66;1583;-22
2023/05/29 07:59:04;;;;;;;;;;;;;;;;;;2213090;59;2234;-22
2023/05/29 08:01:35;;;;;;;;;;;;;;;;;;2212567;59;1525;-22
2023/05/29 08:04:05;;;;;;;;;;;;;;;;;;2211383;66;1939;-22
2023/05/29 08:06:36;;;;;;;;;;;;;;;;;;2211711;66;1709;-22
2023/05/29 08:09:06;;;;;;;;;;;;;;;;;;2208044;67;1417;-22
2023/05/29 08:11:36;;;;;;;;;;;;;;;;;;2211669;59;2130;-22
2023/05/29 08:14:07;;;;;;;;;;;;;;;;;;2210776;59;2239;-22
2023/05/29 08:16:37;;;;;;;;;;;;;;;;;;2211689;59;2340;-22
2023/05/29 08:19:07;;;;;;;;;;;;;;;;;;2211657;66;1148;-22
2023/05/29 08:21:37;;;;;;;;;;;;;;;;;;2211778;66;1142;-22
2023/05/29 08:24:08;;;;;;;;;;;;;;;;;;2211444;67;1955;-22
2023/05/29 08:26:38;;;;;;;;;;;;;;;;;;2208566;67;1639;-22
2023/05/29 08:29:09;;;;;;;;;;;;;;;;;;2212129;66;1354;-22
2023/05/29 08:31:39;;;;;;;;;;;;;;;;;;2211749;59;2207;-22
2023/05/29 08:34:10;;;;;;;;;;;;;;;;;;2209000;66;1308;-22
2023/05/29 08:36:41;;;;;;;;;;;;;;;;;;2208342;59;1249;-22
2023/05/29 08:39:11;;;;;;;;;;;;;;;;;;2207291;59;2179;-22
2023/05/29 08:41:44;;;;;;;;;;;;;;;;;;2212257;59;2248;-23
2023/05/29 08:44:16;;;;;;;;;;;;;;;;;;2211946;66;1404;-22
2023/05/29 08:46:46;;;;;;;;;;;;;;;;;;2212556;59;2144;-22
2023/05/29 08:49:20;;;;;;;;;;;;;;;;;;2211291;59;2164;-22
2023/05/29 08:51:57;;;;;;;;;;;;;;;;;;2212763;59;1301;-22
2023/05/29 08:54:31;;;;;;;;;;;;;;;;;;2212749;59;1263;-20
2023/05/29 08:57:03;;;;;;;;;;;;;;;;;;2212750;66;1262;-20
2023/05/29 08:59:34;;;;;;;;;;;;;;;;;;2212757;59;2170;-20
2023/05/29 09:02:05;;;;;;;;;;;;;;;;;;2209590;59;1992;-20
2023/05/29 09:04:35;;;;;;;;;;;;;;;;;;2211530;59;2204;-21
2023/05/29 09:07:08;;;;;;;;;;;;;;;;;;2212232;59;2320;-22
2023/05/29 09:09:39;;;;;;;;;;;;;;;;;;2213036;66;1281;-22
2023/05/29 09:12:09;;;;;;;;;;;;;;;;;;2212708;66;1134;-22
2023/05/29 09:14:44;;;;;;;;;;;;;;;;;;2213258;66;1317;-22
2023/05/29 09:17:15;;;;;;;;;;;;;;;;;;2212792;59;2301;-20
2023/05/29 09:19:47;;;;;;;;;;;;;;;;;;2213668;59;2301;-21
2023/05/29 09:22:18;;;;;;;;;;;;;;;;;;2209332;59;1936;-23
2023/05/29 09:24:49;;;;;;;;;;;;;;;;;;2208892;67;1586;-22
2023/05/29 09:27:20;;;;;;;;;;;;;;;;;;2212839;59;1304;-22
2023/05/29 09:29:50;;;;;;;;;;;;;;;;;;2213601;66;1770;-23
2023/05/29 09:32:21;;;;;;;;;;;;;;;;;;2211388;59;2601;-23
2023/05/29 09:34:59;;;;;;;;;;;;;;;;;;2211795;59;2586;-23
2023/05/29 09:37:30;;;;;;;;;;;;;;;;;;2212629;66;2377;-23
2023/05/29 09:40:00;;;;;;;;;;;;;;;;;;2211981;59;2227;-21
2023/05/29 09:42:30;;;;;;;;;;;;;;;;;;2212570;66;2330;-21
2023/05/29 09:45:04;;;;;;;;;;;;;;;;;;2213053;59;3057;-21
2023/05/29 09:47:34;;;;;;;;;;;;;;;;;;2209294;59;2077;-21
2023/05/29 09:50:06;;;;;;;;;;;;;;;;;;2212655;59;1973;-21
2023/05/29 09:52:36;;;;;;;;;;;;;;;;;;2209420;59;1763;-21
2023/05/29 09:55:07;;;;;;;;;;;;;;;;;;2212472;59;2336;-22
2023/05/29 09:57:37;;;;;;;;;;;;;;;;;;2212407;59;2206;-21
2023/05/29 10:00:12;;;;;;;;;;;;;;;;;;2213106;59;2827;-21
2023/05/29 10:02:43;;;;;;;;;;;;;;;;;;2208905;67;1999;-21
2023/05/29 10:05:15;;;;;;;;;;;;;;;;;;2212005;59;2350;-35
2023/05/29 10:07:47;;;;;;;;;;;;;;;;;;2211897;59;3397;-21
2023/05/29 10:10:21;;;;;;;;;;;;;;;;;;2211716;66;2789;-21
2023/05/29 10:12:53;;;;;;;;;;;;;;;;;;2212377;66;1896;-21
2023/05/29 10:15:23;;;;;;;;;;;;;;;;;;2211975;66;1983;-21
2023/05/29 10:17:57;;;;;;;;;;;;;;;;;;2211796;59;1603;-21
2023/05/29 10:20:28;;;;;;;;;;;;;;;;;;2211654;59;1652;-21
2023/05/29 10:22:59;;;;;;;;;;;;;;;;;;2208734;59;2143;-21
2023/05/29 10:25:31;;;;;;;;;;;;;;;;;;2208472;59;2389;-21
2023/05/29 10:28:02;;;;;;;;;;;;;;;;;;2211099;59;2166;-21
2023/05/29 10:30:45;;;;;;;;;;;;;;;;;;2207158;59;2589;-21
2023/05/29 10:33:22;;;;;;;;;;;;;;;;;;2210794;66;2328;-21
2023/05/29 10:36:01;;;;;;;;;;;;;;;;;;2208372;59;2029;-22
2023/05/29 10:38:31;;;;;;;;;;;;;;;;;;2211316;67;1084;-21
2023/05/29 10:41:27;;;;;;;;;;;;;;;;;;2211957;66;1736;-21
2023/05/29 10:43:58;;;;;;;;;;;;;;;;;;2211069;66;1939;-22
2023/05/29 10:46:48;;;;;;;;;;;;;;;;;;2210817;59;2203;-21
2023/05/29 10:49:18;;;;;;;;;;;;;;;;;;2211600;66;1937;-22
2023/05/29 10:51:49;;;;;;;;;;;;;;;;;;2211480;59;1309;-21
2023/05/29 10:54:22;;;;;;;;;;;;;;;;;;2209363;59;1413;-21
2023/05/29 10:56:54;;;;;;;;;;;;;;;;;;2211943;66;1379;-21
2023/05/29 10:59:28;;;;;;;;;;;;;;;;;;2211831;66;2247;-21
2023/05/29 11:02:00;;;;;;;;;;;;;;;;;;2212168;59;1995;-21
2023/05/29 11:04:32;;;;;;;;;;;;;;;;;;2211722;66;1490;-21
2023/05/29 11:07:06;;;;;;;;;;;;;;;;;;2212935;59;1212;-21
2023/05/29 11:09:37;;;;;;;;;;;;;;;;;;2208884;59;1698;-21
2023/05/29 11:12:35;;;;;;;;;;;;;;;;;;2206525;67;1419;-21
2023/05/29 11:15:06;;;;;;;;;;;;;;;;;;2212348;66;1246;-21
2023/05/29 11:17:36;;;;;;;;;;;;;;;;;;2213171;66;1907;-21
2023/05/29 11:20:08;;;;;;;;;;;;;;;;;;2211569;66;2303;-21
2023/05/29 11:22:47;;;;;;;;;;;;;;;;;;2212625;66;1943;-21
2023/05/29 11:25:17;;;;;;;;;;;;;;;;;;2211866;66;2226;-21
2023/05/29 11:27:48;;;;;;;;;;;;;;;;;;2209320;59;1320;-21
2023/05/29 11:30:19;;;;;;;;;;;;;;;;;;2211637;59;1216;-21
2023/05/29 11:32:52;;;;;;;;;;;;;;;;;;2209527;67;1386;-21
2023/05/29 11:35:22;;;;;;;;;;;;;;;;;;2212428;59;2123;-21
2023/05/29 11:37:53;;;;;;;;;;;;;;;;;;2212092;59;1290;-21
2023/05/29 11:40:24;;;;;;;;;;;;;;;;;;2212282;66;1644;-22
2023/05/29 11:42:54;;;;;;;;;;;;;;;;;;2212334;66;1933;-22
2023/05/29 11:45:25;;;;;;;;;;;;;;;;;;2211349;59;1343;-21
2023/05/29 11:47:56;;;;;;;;;;;;;;;;;;2212723;66;2043;-22
2023/05/29 11:50:27;;;;;;;;;;;;;;;;;;2209570;59;1495;-21
2023/05/29 11:52:59;;;;;;;;;;;;;;;;;;2213059;59;1657;-21
2023/05/29 11:55:29;;;;;;;;;;;;;;;;;;2208131;59;1628;-22
2023/05/29 11:58:03;;;;;;;;;;;;;;;;;;2212430;59;2131;-21
2023/05/29 12:00:38;;;;;;;;;;;;;;;;;;2211606;59;1873;-21
2023/05/29 12:03:08;;;;;;;;;;;;;;;;;;2209095;59;2017;-21
2023/05/29 12:05:49;;;;;;;;;;;;;;;;;;2212094;59;1367;-21
2023/05/29 12:08:25;;;;;;;;;;;;;;;;;;2212069;59;1400;-21
2023/05/29 12:10:55;;;;;;;;;;;;;;;;;;2212609;59;1308;-21
2023/05/29 12:13:26;;;;;;;;;;;;;;;;;;2208858;67;1120;-21
2023/05/29 12:15:58;;;;;;;;;;;;;;;;;;2212375;66;1211;-21
2023/05/29 12:18:29;;;;;;;;;;;;;;;;;;2212213;66;1271;-21
2023/05/29 12:21:06;;;;;;;;;;;;;;;;;;2209833;59;1741;-20
2023/05/29 12:23:37;;;;;;;;;;;;;;;;;;2212716;59;1944;-21
2023/05/29 12:26:07;;;;;;;;;;;;;;;;;;2211719;66;1441;-23
2023/05/29 12:28:42;;;;;;;;;;;;;;;;;;2212702;67;1233;-20
2023/05/29 12:31:12;;;;;;;;;;;;;;;;;;2211789;59;1627;-21
2023/05/29 12:33:43;;;;;;;;;;;;;;;;;;2212349;66;1248;-21
2023/05/29 12:36:13;;;;;;;;;;;;;;;;;;2211831;59;1372;-21
2023/05/29 12:38:47;;;;;;;;;;;;;;;;;;2207310;59;1985;-21
2023/05/29 12:41:21;;;;;;;;;;;;;;;;;;2211625;67;1220;-21
2023/05/29 12:43:58;;;;;;;;;;;;;;;;;;2211647;66;1936;-21
2023/05/29 12:46:34;;;;;;;;;;;;;;;;;;2211815;59;2064;-21
2023/05/29 12:49:14;;;;;;;;;;;;;;;;;;2211419;67;1282;-21
2023/05/29 12:51:48;;;;;;;;;;;;;;;;;;2212572;59;1785;-21
2023/05/29 12:54:18;;;;;;;;;;;;;;;;;;2211870;59;1636;-21
2023/05/29 12:56:50;;;;;;;;;;;;;;;;;;2212314;66;1281;-21
2023/05/29 12:59:20;;;;;;;;;;;;;;;;;;2212069;66;2226;-21
2023/05/29 13:01:51;;;;;;;;;;;;;;;;;;2212173;59;1602;-21
2023/05/29 13:04:23;;;;;;;;;;;;;;;;;;2212681;66;1948;-21
2023/05/29 13:06:53;;;;;;;;;;;;;;;;;;2209172;59;1197;-21
2023/05/29 13:09:23;;;;;;;;;;;;;;;;;;2212113;67;1186;-21
2023/05/29 13:11:53;;;;;;;;;;;;;;;;;;2212042;59;1229;-21
2023/05/29 13:14:24;;;;;;;;;;;;;;;;;;2208911;66;1382;-21
2023/05/29 13:16:54;;;;;;;;;;;;;;;;;;2212081;66;1754;-21
2023/05/29 13:19:24;;;;;;;;;;;;;;;;;;2212396;66;1520;-21
2023/05/29 13:21:54;;;;;;;;;;;;;;;;;;2212372;66;1164;-21
2023/05/29 13:24:24;;;;;;;;;;;;;;;;;;2211135;66;2106;-21
2023/05/29 13:26:55;;;;;;;;;;;;;;;;;;2211591;66;1259;-21
2023/05/29 13:29:28;;;;;;;;;;;;;;;;;;2212289;66;1102;-21
2023/05/29 13:31:59;;;;;;;;;;;;;;;;;;2211872;66;1855;-21
2023/05/29 13:34:29;;;;;;;;;;;;;;;;;;2212135;66;1835;-21
2023/05/29 13:37:01;;;;;;;;;;;;;;;;;;2212028;59;1330;-21
2023/05/29 13:39:31;;;;;;;;;;;;;;;;;;2212401;59;1936;-21
2023/05/29 13:42:01;;;;;;;;;;;;;;;;;;2212462;66;1924;-21
2023/05/29 13:44:31;;;;;;;;;;;;;;;;;;2212883;59;1328;-20
2023/05/29 13:47:02;;;;;;;;;;;;;;;;;;2213022;59;2143;-20
2023/05/29 13:49:32;;;;;;;;;;;;;;;;;;2211947;59;1269;-21
2023/05/29 13:52:02;;;;;;;;;;;;;;;;;;2213181;59;1307;-21
2023/05/29 13:54:35;;;;;;;;;;;;;;;;;;2212732;59;1201;-21
2023/05/29 13:57:06;;;;;;;;;;;;;;;;;;2213424;66;1714;-20
2023/05/29 13:59:36;;;;;;;;;;;;;;;;;;2212564;59;2269;-20
2023/05/29 14:02:08;;;;;;;;;;;;;;;;;;2212408;59;2205;-20
2023/05/29 14:04:39;;;;;;;;;;;;;;;;;;2211631;59;1817;-20
2023/05/29 14:07:09;;;;;;;;;;;;;;;;;;2212350;59;1349;-20
2023/05/29 14:09:39;;;;;;;;;;;;;;;;;;2212572;66;1522;-20
2023/05/29 14:12:09;;;;;;;;;;;;;;;;;;2212628;59;1572;-20
2023/05/29 14:14:40;;;;;;;;;;;;;;;;;;2212663;67;2224;-20
2023/05/29 14:17:12;;;;;;;;;;;;;;;;;;2211898;66;1730;-21
2023/05/29 14:19:45;;;;;;;;;;;;;;;;;;2212342;66;1284;-21
2023/05/29 14:22:15;;;;;;;;;;;;;;;;;;2212831;59;1947;-20
2023/05/29 14:24:46;;;;;;;;;;;;;;;;;;2213075;59;2103;-21
2023/05/29 14:27:16;;;;;;;;;;;;;;;;;;2213381;66;1303;-21
2023/05/29 14:29:46;;;;;;;;;;;;;;;;;;2211736;66;1355;-21
2023/05/29 14:32:16;;;;;;;;;;;;;;;;;;2212364;66;1818;-21
2023/05/29 14:34:46;;;;;;;;;;;;;;;;;;2212010;66;1282;-21
2023/05/29 14:37:17;;;;;;;;;;;;;;;;;;2212180;59;1834;-21
2023/05/29 14:39:47;;;;;;;;;;;;;;;;;;2212757;59;1238;-21
2023/05/29 14:42:17;;;;;;;;;;;;;;;;;;2208596;66;1929;-21
2023/05/29 14:44:47;;;;;;;;;;;;;;;;;;2212607;67;1284;-21
2023/05/29 14:47:18;;;;;;;;;;;;;;;;;;2209609;67;1912;-21
2023/05/29 14:49:48;;;;;;;;;;;;;;;;;;2212183;59;1573;-21
2023/05/29 14:52:19;;;;;;;;;;;;;;;;;;2214071;59;2125;-21
2023/05/29 14:54:49;;;;;;;;;;;;;;;;;;2213401;59;1224;-21
2023/05/29 14:57:19;;;;;;;;;;;;;;;;;;2213482;66;1749;-21
2023/05/29 14:59:50;;;;;;;;;;;;;;;;;;2213571;59;2532;-21
2023/05/29 15:02:20;;;;;;;;;;;;;;;;;;2212133;59;1940;-21
2023/05/29 15:04:51;;;;;;;;;;;;;;;;;;2212199;59;1895;-21
2023/05/29 15:07:21;;;;;;;;;;;;;;;;;;2212122;59;1674;-21
2023/05/29 15:09:51;;;;;;;;;;;;;;;;;;2212846;67;1212;-21
2023/05/29 15:12:22;;;;;;;;;;;;;;;;;;2211610;66;1297;-21
2023/05/29 15:14:55;;;;;;;;;;;;;;;;;;2212286;67;1706;-20
2023/05/29 15:17:25;;;;;;;;;;;;;;;;;;2212940;67;1533;-20
2023/05/29 15:19:56;;;;;;;;;;;;;;;;;;2212205;67;1207;-21
2023/05/29 15:22:26;;;;;;;;;;;;;;;;;;2211819;66;1931;-21
2023/05/29 15:24:56;;;;;;;;;;;;;;;;;;2212259;66;1959;-21
2023/05/29 15:27:31;;;;;;;;;;;;;;;;;;2212695;66;1701;-20
2023/05/29 15:30:21;;;;;;;;;;;;;;;;;;2209401;66;1217;-21
2023/05/29 15:32:51;;;;;;;;;;;;;;;;;;2210256;67;2001;-20
2023/05/29 15:35:22;;;;;;;;;;;;;;;;;;2212683;59;1472;-21
2023/05/29 15:37:52;;;;;;;;;;;;;;;;;;2212668;59;2079;-21
2023/05/29 15:40:22;;;;;;;;;;;;;;;;;;2212430;66;1247;-21
2023/05/29 15:42:52;;;;;;;;;;;;;;;;;;2211826;66;1947;-20
2023/05/29 15:45:23;;;;;;;;;;;;;;;;;;2209177;67;1839;-21
2023/05/29 15:47:53;;;;;;;;;;;;;;;;;;2212212;59;2058;-21
2023/05/29 15:50:23;;;;;;;;;;;;;;;;;;2212088;67;1567;-20
2023/05/29 15:52:53;;;;;;;;;;;;;;;;;;2212963;66;2263;-20
2023/05/29 15:55:24;;;;;;;;;;;;;;;;;;2212520;59;1788;-21
2023/05/29 15:57:54;;;;;;;;;;;;;;;;;;2213146;59;2234;-20
2023/05/29 16:00:24;;;;;;;;;;;;;;;;;;2212288;59;1532;-20
2023/05/29 16:02:55;;;;;;;;;;;;;;;;;;2211867;67;1928;-21
2023/05/29 16:05:25;;;;;;;;;;;;;;;;;;2210014;59;1765;-21
2023/05/29 16:07:55;;;;;;;;;;;;;;;;;;2208304;59;1364;-20
2023/05/29 16:10:26;;;;;;;;;;;;;;;;;;2212234;67;1409;-20
2023/05/29 16:12:56;;;;;;;;;;;;;;;;;;2212595;59;1364;-20
2023/05/29 16:15:26;;;;;;;;;;;;;;;;;;2212278;59;1434;-21
2023/05/29 16:17:58;;;;;;;;;;;;;;;;;;2212157;66;1366;-20
2023/05/29 16:20:28;;;;;;;;;;;;;;;;;;2212032;66;1372;-20
2023/05/29 16:23:02;;;;;;;;;;;;;;;;;;2212918;66;1944;-21
2023/05/29 16:25:35;;;;;;;;;;;;;;;;;;2212054;66;1219;-20
2023/05/29 16:28:06;;;;;;;;;;;;;;;;;;2209253;66;1377;-20
2023/05/29 16:30:37;;;;;;;;;;;;;;;;;;2212512;67;1260;-20
2023/05/29 16:33:07;;;;;;;;;;;;;;;;;;2212295;67;1862;-20
2023/05/29 16:35:37;;;;;;;;;;;;;;;;;;2212083;59;1838;-20
2023/05/29 16:38:08;;;;;;;;;;;;;;;;;;2212240;59;1399;-20
2023/05/29 16:40:38;;;;;;;;;;;;;;;;;;2209007;67;1373;-21
2023/05/29 16:43:08;;;;;;;;;;;;;;;;;;2212100;59;1947;-21
2023/05/29 16:45:39;;;;;;;;;;;;;;;;;;2212508;66;1524;-22
2023/05/29 16:48:09;;;;;;;;;;;;;;;;;;2211729;66;2190;-22
2023/05/29 16:50:40;;;;;;;;;;;;;;;;;;2212369;59;1289;-23
2023/05/29 16:53:10;;;;;;;;;;;;;;;;;;2211936;59;1793;-22
2023/05/29 16:55:40;;;;;;;;;;;;;;;;;;2212013;59;1387;-22
2023/05/29 16:58:11;;;;;;;;;;;;;;;;;;2212248;59;2227;-21
2023/05/29 17:00:41;;;;;;;;;;;;;;;;;;2212062;59;1395;-21
2023/05/29 17:03:11;;;;;;;;;;;;;;;;;;2211814;67;1941;-22
2023/05/29 17:05:42;;;;;;;;;;;;;;;;;;2208559;59;1686;-22
2023/05/29 17:08:12;;;;;;;;;;;;;;;;;;2212275;66;1695;-22
2023/05/29 17:10:45;;;;;;;;;;;;;;;;;;2212742;67;1711;-22
2023/05/29 17:13:16;;;;;;;;;;;;;;;;;;2208698;67;1626;-23
2023/05/29 17:15:46;;;;;;;;;;;;;;;;;;2212980;66;1767;-22
2023/05/29 17:18:16;;;;;;;;;;;;;;;;;;2209812;66;1825;-22
2023/05/29 17:20:49;;;;;;;;;;;;;;;;;;2213339;66;2020;-22
2023/05/29 17:23:19;;;;;;;;;;;;;;;;;;2212474;66;1931;-22
2023/05/29 17:25:50;;;;;;;;;;;;;;;;;;2213181;66;1857;-22
2023/05/29 17:28:20;;;;;;;;;;;;;;;;;;2212698;66;1400;-22
2023/05/29 17:30:50;;;;;;;;;;;;;;;;;;2213332;59;2407;-22